createdAt,value
2019-02-21T00:00:34.730Z,1018.70
2019-02-21T00:01:34.695Z,1018.74
2019-02-21T00:02:34.673Z,1018.75
2019-02-21T00:03:34.660Z,1018.72
2019-02-21T00:04:34.629Z,1018.71
2019-02-21T00:05:34.630Z,1018.74
2019-02-21T00:06:34.581Z,1018.76
2019-02-21T00:07:34.556Z,1018.83
2019-02-21T00:08:34.533Z,1018.82
2019-02-21T00:09:34.515Z,1018.87
2019-02-21T00:10:34.489Z,1018.84
2019-02-21T00:11:34.471Z,1018.84
2019-02-21T00:12:34.440Z,1018.83
2019-02-21T00:13:34.417Z,1018.85
2019-02-21T00:14:34.408Z,1018.85
2019-02-21T00:15:34.376Z,1018.83
2019-02-21T00:16:34.349Z,1018.82
2019-02-21T00:17:34.326Z,1018.85
2019-02-21T00:18:34.303Z,1018.84
2019-02-21T00:19:34.280Z,1018.85
2019-02-21T00:20:34.259Z,1018.84
2019-02-21T00:21:34.237Z,1018.84
2019-02-21T00:22:34.212Z,1018.83
2019-02-21T00:23:34.189Z,1018.85
2019-02-21T00:24:34.167Z,1018.83
2019-02-21T00:25:34.141Z,1018.84
2019-02-21T00:26:34.124Z,1018.83
2019-02-21T00:27:34.103Z,1018.81
2019-02-21T00:28:34.090Z,1018.79
2019-02-21T00:29:34.052Z,1018.85
2019-02-21T00:30:35.452Z,1018.81
2019-02-21T00:31:34.002Z,1018.80
2019-02-21T00:32:33.978Z,1018.79
2019-02-21T00:33:33.958Z,1018.74
2019-02-21T00:34:33.932Z,1018.77
2019-02-21T00:35:33.910Z,1018.75
2019-02-21T00:36:33.888Z,1018.79
2019-02-21T00:37:33.864Z,1018.77
2019-02-21T00:38:33.842Z,1018.79
2019-02-21T00:39:33.817Z,1018.81
2019-02-21T00:40:33.807Z,1018.81
2019-02-21T00:41:33.774Z,1018.78
2019-02-21T00:42:33.749Z,1018.78
2019-02-21T00:43:33.725Z,1018.76
2019-02-21T00:44:33.701Z,1018.82
2019-02-21T00:45:33.686Z,1018.81
2019-02-21T00:46:33.656Z,1018.77
2019-02-21T00:47:33.631Z,1018.80
2019-02-21T00:48:33.612Z,1018.83
2019-02-21T00:49:33.592Z,1018.82
2019-02-21T00:50:33.569Z,1018.84
2019-02-21T00:51:33.539Z,1018.86
2019-02-21T00:52:33.516Z,1018.87
2019-02-21T00:53:33.496Z,1018.84
2019-02-21T00:54:33.472Z,1018.88
2019-02-21T00:55:33.446Z,1018.84
2019-02-21T00:56:33.422Z,1018.83
2019-02-21T00:57:33.397Z,1018.85
2019-02-21T00:58:33.376Z,1018.81
2019-02-21T00:59:33.352Z,1018.82
2019-02-21T01:00:33.329Z,1018.81
2019-02-21T01:01:33.310Z,1018.85
2019-02-21T01:02:33.292Z,1018.84
2019-02-21T01:03:33.259Z,1018.82
2019-02-21T01:04:33.242Z,1018.84
2019-02-21T01:05:33.213Z,1018.86
2019-02-21T01:06:33.195Z,1018.91
2019-02-21T01:07:33.166Z,1018.90
2019-02-21T01:08:33.147Z,1018.85
2019-02-21T01:09:33.126Z,1018.84
2019-02-21T01:10:33.108Z,1018.88
2019-02-21T01:11:33.073Z,1018.91
2019-02-21T01:12:33.052Z,1018.89
2019-02-21T01:13:33.028Z,1018.89
2019-02-21T01:14:33.007Z,1018.87
2019-02-21T01:15:32.981Z,1018.88
2019-02-21T01:16:32.962Z,1018.84
2019-02-21T01:17:32.936Z,1018.87
2019-02-21T01:18:32.910Z,1018.88
2019-02-21T01:19:32.902Z,1018.90
2019-02-21T01:20:32.884Z,1018.90
2019-02-21T01:21:32.854Z,1018.95
2019-02-21T01:22:32.818Z,1018.92
2019-02-21T01:23:32.793Z,1018.92
2019-02-21T01:24:32.767Z,1018.97
2019-02-21T01:25:32.746Z,1018.93
2019-02-21T01:26:32.723Z,1018.97
2019-02-21T01:27:32.698Z,1018.97
2019-02-21T01:28:32.675Z,1018.98
2019-02-21T01:29:32.652Z,1018.95
2019-02-21T01:30:32.629Z,1018.94
2019-02-21T01:31:32.615Z,1018.95
2019-02-21T01:32:32.582Z,1018.95
2019-02-21T01:33:32.567Z,1018.97
2019-02-21T01:34:32.536Z,1018.98
2019-02-21T01:35:32.513Z,1018.98
2019-02-21T01:36:32.490Z,1018.99
2019-02-21T01:37:32.466Z,1019.01
2019-02-21T01:38:32.489Z,1019.02
2019-02-21T01:39:32.421Z,1019.08
2019-02-21T01:40:32.395Z,1019.05
2019-02-21T01:41:32.371Z,1019.07
2019-02-21T01:42:32.353Z,1019.05
2019-02-21T01:43:32.331Z,1019.04
2019-02-21T01:44:32.338Z,1019.07
2019-02-21T01:45:32.276Z,1019.08
2019-02-21T01:46:32.254Z,1019.05
2019-02-21T01:47:32.232Z,1019.03
2019-02-21T01:48:32.206Z,1019.02
2019-02-21T01:49:32.183Z,1019.03
2019-02-21T01:50:32.163Z,1019.06
2019-02-21T01:51:32.145Z,1019.03
2019-02-21T01:52:32.111Z,1019.05
2019-02-21T01:53:32.094Z,1019.01
2019-02-21T01:54:32.069Z,1019.07
2019-02-21T01:55:32.042Z,1019.02
2019-02-21T01:56:32.043Z,1019.04
2019-02-21T01:57:31.993Z,1019.03
2019-02-21T01:58:31.975Z,1019.00
2019-02-21T01:59:31.948Z,1018.98
2019-02-21T02:00:31.924Z,1019.00
2019-02-21T02:01:31.900Z,1019.03
2019-02-21T02:02:31.879Z,1019.01
2019-02-21T02:03:31.852Z,1019.07
2019-02-21T02:04:31.830Z,1019.05
2019-02-21T02:05:31.804Z,1019.06
2019-02-21T02:06:31.784Z,1019.02
2019-02-21T02:07:31.759Z,1019.01
2019-02-21T02:08:31.734Z,1019.03
2019-02-21T02:09:31.723Z,1019.06
2019-02-21T02:10:31.691Z,1019.06
2019-02-21T02:11:31.686Z,1019.09
2019-02-21T02:12:31.641Z,1019.07
2019-02-21T02:13:31.618Z,1019.10
2019-02-21T02:14:31.598Z,1019.07
2019-02-21T02:15:31.570Z,1019.13
2019-02-21T02:16:31.555Z,1019.10
2019-02-21T02:17:31.521Z,1019.07
2019-02-21T02:18:31.498Z,1019.07
2019-02-21T02:19:31.477Z,1019.08
2019-02-21T02:20:31.454Z,1019.08
2019-02-21T02:21:31.430Z,1019.10
2019-02-21T02:22:31.407Z,1019.09
2019-02-21T02:23:31.379Z,1019.12
2019-02-21T02:24:31.357Z,1019.06
2019-02-21T02:25:31.333Z,1019.08
2019-02-21T02:26:31.310Z,1019.07
2019-02-21T02:27:31.287Z,1019.08
2019-02-21T02:28:31.261Z,1019.10
2019-02-21T02:29:31.246Z,1019.11
2019-02-21T02:30:31.220Z,1019.07
2019-02-21T02:31:31.191Z,1019.10
2019-02-21T02:32:31.172Z,1019.12
2019-02-21T02:33:31.144Z,1019.08
2019-02-21T02:34:31.121Z,1019.12
2019-02-21T02:35:31.098Z,1019.12
2019-02-21T02:36:31.076Z,1019.19
2019-02-21T02:37:31.059Z,1019.21
2019-02-21T02:38:31.026Z,1019.18
2019-02-21T02:39:31.001Z,1019.21
2019-02-21T02:40:30.980Z,1019.20
2019-02-21T02:41:30.955Z,1019.19
2019-02-21T02:42:30.931Z,1019.18
2019-02-21T02:43:30.908Z,1019.13
2019-02-21T02:44:30.883Z,1019.19
2019-02-21T02:45:30.864Z,1019.15
2019-02-21T02:46:30.844Z,1019.14
2019-02-21T02:47:30.813Z,1019.14
2019-02-21T02:48:30.790Z,1019.14
2019-02-21T02:49:30.773Z,1019.16
2019-02-21T02:50:30.753Z,1019.14
2019-02-21T02:51:30.720Z,1019.16
2019-02-21T02:52:30.696Z,1019.19
2019-02-21T02:53:30.673Z,1019.17
2019-02-21T02:54:30.653Z,1019.13
2019-02-21T02:55:30.628Z,1019.13
2019-02-21T02:56:30.603Z,1019.16
2019-02-21T02:57:30.577Z,1019.16
2019-02-21T02:58:30.558Z,1019.15
2019-02-21T02:59:40.293Z,1019.18
2019-02-21T03:00:30.516Z,1019.17
2019-02-21T03:01:34.656Z,1019.15
2019-02-21T03:02:30.465Z,1019.20
2019-02-21T03:03:30.439Z,1019.17
2019-02-21T03:04:30.419Z,1019.16
2019-02-21T03:05:30.390Z,1019.15
2019-02-21T03:06:30.366Z,1019.16
2019-02-21T03:07:30.341Z,1019.19
2019-02-21T03:08:30.325Z,1019.19
2019-02-21T03:09:30.294Z,1019.20
2019-02-21T03:10:30.269Z,1019.16
2019-02-21T03:11:30.245Z,1019.20
2019-02-21T03:12:30.225Z,1019.18
2019-02-21T03:13:30.200Z,1019.18
2019-02-21T03:14:30.178Z,1019.15
2019-02-21T03:15:30.159Z,1019.17
2019-02-21T03:16:30.130Z,1019.17
2019-02-21T03:17:30.107Z,1019.13
2019-02-21T03:18:30.083Z,1019.13
2019-02-21T03:19:30.058Z,1019.12
2019-02-21T03:20:30.048Z,1019.13
2019-02-21T03:21:30.023Z,1019.09
2019-02-21T03:22:29.986Z,1019.09
2019-02-21T03:23:29.968Z,1019.06
2019-02-21T03:24:29.937Z,1019.11
2019-02-21T03:25:29.916Z,1019.12
2019-02-21T03:26:29.891Z,1019.13
2019-02-21T03:27:29.873Z,1019.10
2019-02-21T03:28:29.842Z,1019.11
2019-02-21T03:29:29.820Z,1019.10
2019-02-21T03:30:29.796Z,1019.12
2019-02-21T03:31:29.775Z,1019.11
2019-02-21T03:32:29.747Z,1019.11
2019-02-21T03:33:29.726Z,1019.11
2019-02-21T03:34:29.700Z,1019.10
2019-02-21T03:35:29.683Z,1019.05
2019-02-21T03:36:29.654Z,1019.12
2019-02-21T03:37:29.637Z,1019.14
2019-02-21T03:38:29.609Z,1019.09
2019-02-21T03:39:29.586Z,1019.08
2019-02-21T03:40:29.557Z,1019.06
2019-02-21T03:41:29.537Z,1019.02
2019-02-21T03:42:29.511Z,1019.07
2019-02-21T03:43:29.484Z,1019.02
2019-02-21T03:44:29.481Z,1019.06
2019-02-21T03:45:29.439Z,1019.04
2019-02-21T03:46:29.412Z,1019.03
2019-02-21T03:47:29.389Z,1019.03
2019-02-21T03:48:29.368Z,1019.08
2019-02-21T03:49:29.346Z,1019.06
2019-02-21T03:50:29.321Z,1019.04
2019-02-21T03:51:29.293Z,1019.04
2019-02-21T03:52:29.270Z,1019.04
2019-02-21T03:53:29.247Z,1019.07
2019-02-21T03:54:29.221Z,1019.02
2019-02-21T03:55:29.198Z,1019.00
2019-02-21T03:56:29.175Z,1018.97
2019-02-21T03:57:29.151Z,1018.97
2019-02-21T03:58:29.125Z,1018.93
2019-02-21T03:59:29.102Z,1018.94
2019-02-21T04:00:29.079Z,1018.97
2019-02-21T04:01:29.053Z,1018.95
2019-02-21T04:02:29.028Z,1018.98
2019-02-21T04:03:29.005Z,1018.93
2019-02-21T04:04:28.991Z,1018.95
2019-02-21T04:05:28.962Z,1018.97
2019-02-21T04:06:28.933Z,1018.95
2019-02-21T04:07:28.909Z,1018.97
2019-02-21T04:08:28.890Z,1018.99
2019-02-21T04:09:28.861Z,1019.04
2019-02-21T04:10:28.838Z,1019.05
2019-02-21T04:11:28.812Z,1019.03
2019-02-21T04:12:28.790Z,1018.99
2019-02-21T04:13:28.766Z,1019.02
2019-02-21T04:14:28.772Z,1018.98
2019-02-21T04:15:28.718Z,1018.94
2019-02-21T04:16:28.694Z,1018.94
2019-02-21T04:17:28.670Z,1018.97
2019-02-21T04:18:28.647Z,1019.00
2019-02-21T04:19:28.630Z,1018.99
2019-02-21T04:20:28.601Z,1019.05
2019-02-21T04:21:28.574Z,1019.01
2019-02-21T04:22:28.552Z,1019.01
2019-02-21T04:23:28.529Z,1018.98
2019-02-21T04:24:28.502Z,1018.99
2019-02-21T04:25:28.481Z,1019.01
2019-02-21T04:26:28.456Z,1019.01
2019-02-21T04:27:28.430Z,1019.03
2019-02-21T04:28:28.413Z,1019.04
2019-02-21T04:29:28.383Z,1019.01
2019-02-21T04:30:28.363Z,1019.01
2019-02-21T04:31:28.343Z,1019.00
2019-02-21T04:32:28.313Z,1018.98
2019-02-21T04:33:28.287Z,1018.99
2019-02-21T04:34:28.267Z,1018.95
2019-02-21T04:35:28.239Z,1018.98
2019-02-21T04:36:28.217Z,1018.93
2019-02-21T04:37:28.194Z,1018.94
2019-02-21T04:38:28.173Z,1018.93
2019-02-21T04:39:28.149Z,1018.93
2019-02-21T04:40:28.123Z,1018.91
2019-02-21T04:41:28.101Z,1018.93
2019-02-21T04:42:28.072Z,1018.88
2019-02-21T04:43:28.048Z,1018.90
2019-02-21T04:44:28.063Z,1018.85
2019-02-21T04:45:28.015Z,1018.86
2019-02-21T04:46:27.977Z,1018.88
2019-02-21T04:47:27.954Z,1018.87
2019-02-21T04:48:27.930Z,1018.88
2019-02-21T04:49:27.903Z,1018.88
2019-02-21T04:50:27.888Z,1018.85
2019-02-21T04:51:27.863Z,1018.87
2019-02-21T04:52:27.831Z,1018.84
2019-02-21T04:53:27.809Z,1018.85
2019-02-21T04:54:27.788Z,1018.83
2019-02-21T04:55:27.761Z,1018.83
2019-02-21T04:56:27.737Z,1018.77
2019-02-21T04:57:27.715Z,1018.83
2019-02-21T04:58:27.691Z,1018.82
2019-02-21T04:59:27.679Z,1018.85
2019-02-21T05:00:27.643Z,1018.84
2019-02-21T05:01:27.617Z,1018.87
2019-02-21T05:02:29.475Z,1018.81
2019-02-21T05:03:27.567Z,1018.86
2019-02-21T05:04:27.544Z,1018.83
2019-02-21T05:05:27.521Z,1018.87
2019-02-21T05:06:27.498Z,1018.84
2019-02-21T05:07:27.471Z,1018.82
2019-02-21T05:08:27.449Z,1018.89
2019-02-21T05:09:27.513Z,1018.90
2019-02-21T05:10:27.402Z,1018.95
2019-02-21T05:11:27.377Z,1018.91
2019-02-21T05:12:27.357Z,1018.95
2019-02-21T05:13:27.329Z,1018.92
2019-02-21T05:14:27.306Z,1018.93
2019-02-21T05:15:27.288Z,1018.88
2019-02-21T05:16:27.262Z,1018.85
2019-02-21T05:17:27.233Z,1018.86
2019-02-21T05:18:27.210Z,1018.88
2019-02-21T05:19:27.192Z,1018.88
2019-02-21T05:20:27.161Z,1018.91
2019-02-21T05:21:27.144Z,1018.90
2019-02-21T05:22:27.114Z,1018.88
2019-02-21T05:23:27.093Z,1018.89
2019-02-21T05:24:27.065Z,1018.86
2019-02-21T05:25:27.044Z,1018.82
2019-02-21T05:26:27.018Z,1018.84
2019-02-21T05:27:26.999Z,1018.85
2019-02-21T05:28:26.973Z,1018.87
2019-02-21T05:29:26.946Z,1018.89
2019-02-21T05:30:26.931Z,1018.88
2019-02-21T05:31:26.902Z,1018.87
2019-02-21T05:32:26.957Z,1018.87
2019-02-21T05:33:26.870Z,1018.92
2019-02-21T05:34:26.827Z,1018.89
2019-02-21T05:35:26.810Z,1018.94
2019-02-21T05:36:26.776Z,1018.90
2019-02-21T05:37:26.758Z,1018.90
2019-02-21T05:38:26.741Z,1018.93
2019-02-21T05:39:26.707Z,1018.91
2019-02-21T05:40:28.611Z,1018.90
2019-02-21T05:41:26.665Z,1018.94
2019-02-21T05:42:26.644Z,1018.93
2019-02-21T05:43:26.618Z,1018.95
2019-02-21T05:44:26.596Z,1018.90
2019-02-21T05:45:26.562Z,1018.90
2019-02-21T05:46:26.539Z,1018.89
2019-02-21T05:47:26.517Z,1018.88
2019-02-21T05:48:26.500Z,1018.90
2019-02-21T05:49:26.468Z,1018.89
2019-02-21T05:50:26.445Z,1018.94
2019-02-21T05:51:26.422Z,1018.92
2019-02-21T05:52:26.395Z,1018.92
2019-02-21T05:53:26.373Z,1018.92
2019-02-21T05:54:26.348Z,1018.89
2019-02-21T05:55:26.325Z,1018.87
2019-02-21T05:56:26.300Z,1018.85
2019-02-21T05:57:26.280Z,1018.86
2019-02-21T05:58:26.258Z,1018.89
2019-02-21T05:59:26.227Z,1018.89
2019-02-21T06:00:26.203Z,1018.91
2019-02-21T06:01:26.187Z,1018.92
2019-02-21T06:02:26.157Z,1018.91
2019-02-21T06:03:26.142Z,1018.89
2019-02-21T06:04:26.108Z,1018.92
2019-02-21T06:05:26.085Z,1018.93
2019-02-21T06:06:26.060Z,1018.91
2019-02-21T06:07:26.036Z,1018.96
2019-02-21T06:08:26.013Z,1018.97
2019-02-21T06:09:25.996Z,1018.97
2019-02-21T06:10:25.966Z,1019.00
2019-02-21T06:11:25.940Z,1018.96
2019-02-21T06:12:33.498Z,1018.94
2019-02-21T06:13:25.895Z,1018.99
2019-02-21T06:14:25.871Z,1018.96
2019-02-21T06:15:25.857Z,1018.95
2019-02-21T06:16:25.826Z,1018.98
2019-02-21T06:17:25.796Z,1018.97
2019-02-21T06:18:25.773Z,1018.98
2019-02-21T06:19:25.868Z,1018.95
2019-02-21T06:20:25.728Z,1019.01
2019-02-21T06:21:25.702Z,1019.02
2019-02-21T06:22:25.675Z,1018.98
2019-02-21T06:23:25.653Z,1018.99
2019-02-21T06:24:25.632Z,1019.03
2019-02-21T06:25:29.557Z,1019.06
2019-02-21T06:26:25.580Z,1019.06
2019-02-21T06:27:25.554Z,1019.06
2019-02-21T06:28:25.532Z,1019.05
2019-02-21T06:29:25.543Z,1019.06
2019-02-21T06:30:25.499Z,1019.10
2019-02-21T06:31:25.460Z,1019.08
2019-02-21T06:32:25.437Z,1019.06
2019-02-21T06:33:25.414Z,1019.10
2019-02-21T06:34:25.388Z,1019.07
2019-02-21T06:35:25.366Z,1019.07
2019-02-21T06:36:26.245Z,1019.11
2019-02-21T06:37:25.319Z,1019.09
2019-02-21T06:38:25.294Z,1019.06
2019-02-21T06:39:25.352Z,1019.05
2019-02-21T06:40:25.243Z,1019.06
2019-02-21T06:41:25.218Z,1019.06
2019-02-21T06:42:25.201Z,1019.08
2019-02-21T06:43:25.174Z,1019.09
2019-02-21T06:44:25.156Z,1019.12
2019-02-21T06:45:25.126Z,1019.11
2019-02-21T06:46:25.111Z,1019.15
2019-02-21T06:47:25.081Z,1019.14
2019-02-21T06:48:25.055Z,1019.12
2019-02-21T06:49:32.666Z,1019.14
2019-02-21T06:50:27.134Z,1019.17
2019-02-21T06:51:24.977Z,1019.15
2019-02-21T06:52:24.955Z,1019.17
2019-02-21T06:53:24.939Z,1019.17
2019-02-21T06:54:24.932Z,1019.20
2019-02-21T06:55:24.881Z,1019.25
2019-02-21T06:56:24.858Z,1019.22
2019-02-21T06:57:24.835Z,1019.25
2019-02-21T06:58:24.823Z,1019.26
2019-02-21T06:59:24.787Z,1019.26
2019-02-21T07:00:24.763Z,1019.31
2019-02-21T07:01:29.113Z,1019.31
2019-02-21T07:02:24.715Z,1019.29
2019-02-21T07:03:24.688Z,1019.31
2019-02-21T07:04:24.679Z,1019.32
2019-02-21T07:05:24.642Z,1019.30
2019-02-21T07:06:32.020Z,1019.33
2019-02-21T07:07:24.598Z,1019.34
2019-02-21T07:08:25.261Z,1019.38
2019-02-21T07:09:24.546Z,1019.41
2019-02-21T07:10:24.522Z,1019.39
2019-02-21T07:11:25.344Z,1019.44
2019-02-21T07:12:24.474Z,1019.44
2019-02-21T07:13:26.860Z,1019.44
2019-02-21T07:14:24.448Z,1019.46
2019-02-21T07:15:24.405Z,1019.46
2019-02-21T07:16:24.382Z,1019.45
2019-02-21T07:17:24.353Z,1019.45
2019-02-21T07:18:24.339Z,1019.42
2019-02-21T07:19:24.306Z,1019.46
2019-02-21T07:20:24.292Z,1019.47
2019-02-21T07:21:24.270Z,1019.50
2019-02-21T07:22:24.233Z,1019.50
2019-02-21T07:23:24.210Z,1019.50
2019-02-21T07:24:24.192Z,1019.55
2019-02-21T07:25:24.166Z,1019.56
2019-02-21T07:26:24.140Z,1019.59
2019-02-21T07:27:24.113Z,1019.60
2019-02-21T07:28:24.093Z,1019.61
2019-02-21T07:29:24.081Z,1019.56
2019-02-21T07:30:24.047Z,1019.55
2019-02-21T07:31:28.577Z,1019.56
2019-02-21T07:32:23.995Z,1019.54
2019-02-21T07:33:28.550Z,1019.57
2019-02-21T07:34:23.948Z,1019.56
2019-02-21T07:35:23.921Z,1019.52
2019-02-21T07:36:23.904Z,1019.59
2019-02-21T07:37:23.873Z,1019.59
2019-02-21T07:38:23.890Z,1019.62
2019-02-21T07:39:23.842Z,1019.61
2019-02-21T07:40:23.805Z,1019.59
2019-02-21T07:41:23.778Z,1019.61
2019-02-21T07:42:23.754Z,1019.58
2019-02-21T07:43:24.975Z,1019.64
2019-02-21T07:44:23.705Z,1019.62
2019-02-21T07:45:23.687Z,1019.62
2019-02-21T07:46:23.682Z,1019.66
2019-02-21T07:47:23.633Z,1019.71
2019-02-21T07:48:23.610Z,1019.71
2019-02-21T07:49:25.663Z,1019.76
2019-02-21T07:50:23.569Z,1019.75
2019-02-21T07:51:23.546Z,1019.75
2019-02-21T07:52:26.029Z,1019.76
2019-02-21T07:53:23.497Z,1019.78
2019-02-21T07:54:23.473Z,1019.76
2019-02-21T07:55:23.445Z,1019.79
2019-02-21T07:56:23.486Z,1019.80
2019-02-21T07:57:23.397Z,1019.79
2019-02-21T07:58:23.375Z,1019.80
2019-02-21T07:59:23.354Z,1019.80
2019-02-21T08:00:23.327Z,1019.81
2019-02-21T08:01:23.300Z,1019.81
2019-02-21T08:02:23.275Z,1019.86
2019-02-21T08:03:31.825Z,1019.85
2019-02-21T08:04:23.226Z,1019.86
2019-02-21T08:05:23.797Z,1019.89
2019-02-21T08:06:23.180Z,1019.91
2019-02-21T08:07:23.156Z,1019.94
2019-02-21T08:08:23.208Z,1019.98
2019-02-21T08:09:23.136Z,1019.99
2019-02-21T08:10:33.168Z,1019.94
2019-02-21T08:11:23.059Z,1019.95
2019-02-21T08:12:23.333Z,1019.93
2019-02-21T08:13:23.024Z,1019.92
2019-02-21T08:14:22.989Z,1019.95
2019-02-21T08:15:22.965Z,1019.96
2019-02-21T08:16:22.941Z,1019.94
2019-02-21T08:17:22.919Z,1019.96
2019-02-21T08:18:22.904Z,1019.97
2019-02-21T08:19:22.870Z,1019.93
2019-02-21T08:20:33.197Z,1019.96
2019-02-21T08:21:22.939Z,1019.93
2019-02-21T08:22:22.806Z,1019.94
2019-02-21T08:23:22.778Z,1019.92
2019-02-21T08:24:22.758Z,1019.97
2019-02-21T08:25:22.726Z,1019.97
2019-02-21T08:26:22.744Z,1019.97
2019-02-21T08:27:22.683Z,1019.95
2019-02-21T08:28:22.657Z,1019.94
2019-02-21T08:29:22.664Z,1019.91
2019-02-21T08:30:22.612Z,1019.93
2019-02-21T08:31:22.587Z,1019.99
2019-02-21T08:32:22.566Z,1019.98
2019-02-21T08:33:22.624Z,1020.02
2019-02-21T08:34:22.514Z,1020.02
2019-02-21T08:35:22.496Z,1020.02
2019-02-21T08:36:22.467Z,1020.07
2019-02-21T08:37:22.444Z,1020.09
2019-02-21T08:38:22.419Z,1020.04
2019-02-21T08:39:22.395Z,1020.08
2019-02-21T08:40:24.930Z,1020.09
2019-02-21T08:41:22.399Z,1020.06
2019-02-21T08:42:22.327Z,1020.05
2019-02-21T08:43:22.310Z,1019.99
2019-02-21T08:44:22.280Z,1020.01
2019-02-21T08:45:22.255Z,1019.98
2019-02-21T08:46:22.232Z,1019.99
2019-02-21T08:47:22.206Z,1019.96
2019-02-21T08:48:22.188Z,1019.98
2019-02-21T08:49:22.164Z,1020.00
2019-02-21T08:50:22.579Z,1020.00
2019-02-21T08:51:22.114Z,1019.99
2019-02-21T08:52:22.088Z,1020.03
2019-02-21T08:53:22.066Z,1020.03
2019-02-21T08:54:22.046Z,1020.07
2019-02-21T08:55:22.026Z,1020.09
2019-02-21T08:56:22.000Z,1020.11
2019-02-21T08:57:21.975Z,1020.12
2019-02-21T08:58:21.948Z,1020.11
2019-02-21T08:59:21.924Z,1020.17
2019-02-21T09:00:21.902Z,1020.18
2019-02-21T09:01:21.877Z,1020.23
2019-02-21T09:02:21.932Z,1020.25
2019-02-21T09:03:21.830Z,1020.31
2019-02-21T09:04:27.335Z,1020.39
2019-02-21T09:05:21.783Z,1020.35
2019-02-21T09:06:21.763Z,1020.40
2019-02-21T09:07:21.745Z,1020.35
2019-02-21T09:08:32.741Z,1020.40
2019-02-21T09:09:21.697Z,1020.41
2019-02-21T09:10:21.664Z,1020.40
2019-02-21T09:11:21.658Z,1020.39
2019-02-21T09:12:21.626Z,1020.41
2019-02-21T09:13:23.680Z,1020.38
2019-02-21T09:14:21.583Z,1020.39
2019-02-21T09:15:21.549Z,1020.43
2019-02-21T09:16:21.528Z,1020.41
2019-02-21T09:17:21.502Z,1020.43
2019-02-21T09:18:21.480Z,1020.43
2019-02-21T09:19:21.471Z,1020.41
2019-02-21T09:20:21.435Z,1020.39
2019-02-21T09:21:21.411Z,1020.38
2019-02-21T09:22:21.387Z,1020.41
2019-02-21T09:23:21.366Z,1020.43
2019-02-21T09:24:37.861Z,1020.46
2019-02-21T09:25:21.323Z,1020.44
2019-02-21T09:26:21.750Z,1020.49
2019-02-21T09:27:21.274Z,1020.50
2019-02-21T09:28:21.263Z,1020.54
2019-02-21T09:29:21.225Z,1020.56
2019-02-21T09:30:21.202Z,1020.58
2019-02-21T09:31:21.183Z,1020.55
2019-02-21T09:32:21.158Z,1020.57
2019-02-21T09:33:21.611Z,1020.53
2019-02-21T09:34:21.640Z,1020.56
2019-02-21T09:35:21.094Z,1020.55
2019-02-21T09:36:21.070Z,1020.58
2019-02-21T09:37:21.049Z,1020.61
2019-02-21T09:38:21.025Z,1020.56
2019-02-21T09:39:21.002Z,1020.56
2019-02-21T09:40:20.972Z,1020.56
2019-02-21T09:41:20.954Z,1020.55
2019-02-21T09:42:20.922Z,1020.53
2019-02-21T09:43:20.902Z,1020.51
2019-02-21T09:44:20.879Z,1020.53
2019-02-21T09:45:20.861Z,1020.51
2019-02-21T09:46:20.831Z,1020.51
2019-02-21T09:47:20.805Z,1020.51
2019-02-21T09:48:20.782Z,1020.50
2019-02-21T09:49:20.761Z,1020.53
2019-02-21T09:50:20.746Z,1020.52
2019-02-21T09:51:20.716Z,1020.53
2019-02-21T09:52:20.695Z,1020.55
2019-02-21T09:53:20.668Z,1020.50
2019-02-21T09:54:20.650Z,1020.57
2019-02-21T09:55:20.631Z,1020.55
2019-02-21T09:56:30.046Z,1020.54
2019-02-21T09:57:20.576Z,1020.56
2019-02-21T09:58:20.553Z,1020.57
2019-02-21T09:59:20.530Z,1020.57
2019-02-21T10:00:20.509Z,1020.61
2019-02-21T10:01:20.483Z,1020.60
2019-02-21T10:02:22.975Z,1020.65
2019-02-21T10:03:20.434Z,1020.60
2019-02-21T10:04:20.413Z,1020.57
2019-02-21T10:05:20.390Z,1020.60
2019-02-21T10:06:20.377Z,1020.57
2019-02-21T10:07:20.345Z,1020.59
2019-02-21T10:08:22.001Z,1020.61
2019-02-21T10:09:20.311Z,1020.60
2019-02-21T10:10:20.281Z,1020.61
2019-02-21T10:11:20.256Z,1020.61
2019-02-21T10:12:20.228Z,1020.64
2019-02-21T10:13:20.211Z,1020.62
2019-02-21T10:14:21.524Z,1020.66
2019-02-21T10:15:20.178Z,1020.67
2019-02-21T10:16:20.138Z,1020.62
2019-02-21T10:17:20.117Z,1020.59
2019-02-21T10:18:20.097Z,1020.54
2019-02-21T10:19:20.070Z,1020.52
2019-02-21T10:20:20.061Z,1020.55
2019-02-21T10:21:20.022Z,1020.55
2019-02-21T10:22:20.003Z,1020.56
2019-02-21T10:23:19.982Z,1020.52
2019-02-21T10:24:19.955Z,1020.51
2019-02-21T10:25:22.782Z,1020.56
2019-02-21T10:26:19.920Z,1020.51
2019-02-21T10:27:19.905Z,1020.53
2019-02-21T10:28:19.869Z,1020.48
2019-02-21T10:29:19.841Z,1020.55
2019-02-21T10:30:19.818Z,1020.53
2019-02-21T10:31:19.804Z,1020.58
2019-02-21T10:32:19.770Z,1020.60
2019-02-21T10:33:19.748Z,1020.58
2019-02-21T10:34:21.670Z,1020.57
2019-02-21T10:35:19.712Z,1020.57
2019-02-21T10:36:19.683Z,1020.54
2019-02-21T10:37:19.656Z,1020.53
2019-02-21T10:38:19.636Z,1020.48
2019-02-21T10:39:19.612Z,1020.53
2019-02-21T10:40:19.613Z,1020.48
2019-02-21T10:41:19.577Z,1020.55
2019-02-21T10:42:19.548Z,1020.53
2019-02-21T10:43:19.525Z,1020.52
2019-02-21T10:44:19.505Z,1020.54
2019-02-21T10:45:19.484Z,1020.52
2019-02-21T10:46:19.454Z,1020.53
2019-02-21T10:47:19.435Z,1020.52
2019-02-21T10:48:19.426Z,1020.57
2019-02-21T10:49:19.401Z,1020.52
2019-02-21T10:50:19.368Z,1020.55
2019-02-21T10:51:19.342Z,1020.56
2019-02-21T10:52:19.326Z,1020.52
2019-02-21T10:53:19.303Z,1020.42
2019-02-21T10:54:19.282Z,1020.40
2019-02-21T10:55:19.357Z,1020.36
2019-02-21T10:56:19.234Z,1020.33
2019-02-21T10:57:19.208Z,1020.32
2019-02-21T10:58:19.195Z,1020.36
2019-02-21T10:59:19.162Z,1020.32
2019-02-21T11:00:19.150Z,1020.30
2019-02-21T11:01:19.117Z,1020.34
2019-02-21T11:02:19.101Z,1020.39
2019-02-21T11:03:19.074Z,1020.30
2019-02-21T11:04:19.051Z,1020.33
2019-02-21T11:05:19.034Z,1020.31
2019-02-21T11:06:19.009Z,1020.31
2019-02-21T11:07:18.984Z,1020.29
2019-02-21T11:08:18.970Z,1020.27
2019-02-21T11:09:18.943Z,1020.33
2019-02-21T11:10:19.400Z,1020.34
2019-02-21T11:11:18.901Z,1020.30
2019-02-21T11:12:18.875Z,1020.30
2019-02-21T11:13:18.852Z,1020.29
2019-02-21T11:14:18.828Z,1020.27
2019-02-21T11:15:18.807Z,1020.27
2019-02-21T11:16:18.788Z,1020.35
2019-02-21T11:17:18.779Z,1020.32
2019-02-21T11:18:18.843Z,1020.29
2019-02-21T11:19:18.718Z,1020.35
2019-02-21T11:20:18.700Z,1020.33
2019-02-21T11:21:18.676Z,1020.34
2019-02-21T11:22:18.655Z,1020.29
2019-02-21T11:23:18.634Z,1020.34
2019-02-21T11:24:18.607Z,1020.33
2019-02-21T11:25:18.582Z,1020.35
2019-02-21T11:26:18.565Z,1020.31
2019-02-21T11:27:18.539Z,1020.32
2019-02-21T11:28:18.525Z,1020.35
2019-02-21T11:29:18.495Z,1020.34
2019-02-21T11:30:18.479Z,1020.31
2019-02-21T11:31:18.453Z,1020.28
2019-02-21T11:32:18.437Z,1020.32
2019-02-21T11:33:18.408Z,1020.33
2019-02-21T11:34:18.383Z,1020.29
2019-02-21T11:35:18.361Z,1020.28
2019-02-21T11:36:18.337Z,1020.25
2019-02-21T11:37:18.317Z,1020.28
2019-02-21T11:38:18.294Z,1020.32
2019-02-21T11:39:18.271Z,1020.29
2019-02-21T11:40:18.251Z,1020.30
2019-02-21T11:41:18.228Z,1020.27
2019-02-21T11:42:18.211Z,1020.30
2019-02-21T11:43:18.188Z,1020.26
2019-02-21T11:44:18.163Z,1020.31
2019-02-21T11:45:18.152Z,1020.32
2019-02-21T11:46:18.119Z,1020.29
2019-02-21T11:47:18.098Z,1020.32
2019-02-21T11:48:18.073Z,1020.29
2019-02-21T11:49:18.055Z,1020.31
2019-02-21T11:50:18.108Z,1020.28
2019-02-21T11:51:18.014Z,1020.26
2019-02-21T11:52:18.023Z,1020.23
2019-02-21T11:53:17.968Z,1020.26
2019-02-21T11:54:26.552Z,1020.26
2019-02-21T11:55:18.055Z,1020.22
2019-02-21T11:56:17.896Z,1020.20
2019-02-21T11:57:17.878Z,1020.17
2019-02-21T11:58:17.852Z,1020.13
2019-02-21T11:59:17.829Z,1020.12
2019-02-21T12:00:17.805Z,1020.15
2019-02-21T12:01:17.784Z,1020.14
2019-02-21T12:02:17.762Z,1020.17
2019-02-21T12:03:17.742Z,1020.16
2019-02-21T12:04:17.717Z,1020.17
2019-02-21T12:05:22.980Z,1020.15